Time;durP1;ratioP1;P1;durP2;ratioP2;P2;SDS_P1;SDS_P2;PMS_P1;PMS_P2;Temp;Humidity;BMP_temperature;BMP_pressure;BME280_temperature;BME280_humidity;BME280_pressure;Samples;Min_cycle;Max_cycle;Signal;HPM_P1;HPM_P2
2021/03/24 00:01:38;;;;;;;2.00;1.25;;;19.80;45.20;;;;;;7711578;23;20005;-70
2021/03/24 00:04:39;;;;;;;3.20;1.20;;;19.80;45.20;;;;;;7711280;23;20132;-69
2021/03/24 00:07:41;;;;;;;1.20;0.93;;;19.80;45.20;;;;;;7711580;23;20012;-70
2021/03/24 00:10:43;;;;;;;1.33;1.00;;;19.80;45.20;;;;;;7710898;23;20008;-70
2021/03/24 00:13:43;;;;;;;1.98;1.40;;;19.80;45.20;;;;;;7711396;23;20005;-70
2021/03/24 00:16:44;;;;;;;1.80;1.00;;;19.80;45.20;;;;;;7711205;23;20000;-69
2021/03/24 00:19:44;;;;;;;1.20;0.98;;;19.80;45.30;;;;;;7711202;23;20071;-69
2021/03/24 00:22:45;;;;;;;1.80;1.20;;;19.80;45.20;;;;;;7711442;23;20015;-69
2021/03/24 00:25:46;;;;;;;1.58;1.27;;;19.80;45.20;;;;;;7708354;23;20012;-70
2021/03/24 00:28:46;;;;;;;1.42;1.23;;;19.80;45.20;;;;;;7710656;23;20015;-69
2021/03/24 00:31:47;;;;;;;1.38;1.13;;;19.80;45.20;;;;;;7711208;23;20024;-69
2021/03/24 00:34:47;;;;;;;1.13;0.80;;;19.90;45.30;;;;;;7711330;23;20012;-70
2021/03/24 00:37:48;;;;;;;1.08;0.90;;;19.80;45.90;;;;;;7710924;23;20079;-69
2021/03/24 00:40:52;;;;;;;1.60;1.10;;;19.80;45.30;;;;;;7711321;23;20468;-69
2021/03/24 00:43:53;;;;;;;1.10;1.00;;;19.80;45.20;;;;;;7711228;23;20055;-70
2021/03/24 00:46:56;;;;;;;2.60;1.30;;;19.80;45.30;;;;;;7710636;23;20413;-69
2021/03/24 00:49:57;;;;;;;1.55;1.20;;;19.80;45.30;;;;;;7710456;23;20032;-69
2021/03/24 00:52:57;;;;;;;1.60;1.23;;;19.80;45.20;;;;;;7710975;23;20015;-69
2021/03/24 00:55:58;;;;;;;1.48;1.15;;;19.80;45.30;;;;;;7711296;23;20118;-70
2021/03/24 00:58:58;;;;;;;1.45;1.15;;;19.80;45.30;;;;;;7710724;23;20020;-69
2021/03/24 01:01:59;;;;;;;1.45;1.05;;;19.80;45.30;;;;;;7711364;23;20332;-69
2021/03/24 01:05:04;;;;;;;1.40;1.00;;;19.80;45.20;;;;;;7710588;23;20005;-70
2021/03/24 01:08:11;;;;;;;2.45;1.20;;;19.80;45.30;;;;;;7711256;23;20005;-69
2021/03/24 01:11:11;;;;;;;1.45;1.17;;;19.80;45.20;;;;;;7710763;23;20440;-69
2021/03/24 01:14:12;;;;;;;1.23;1.10;;;19.80;45.30;;;;;;7711103;23;20005;-70
2021/03/24 01:17:13;;;;;;;1.17;1.08;;;19.80;45.30;;;;;;7711538;23;20012;-69
2021/03/24 01:20:15;;;;;;;1.38;1.20;;;19.80;45.90;;;;;;7710785;23;20091;-69
2021/03/24 01:23:16;;;;;;;1.50;1.20;;;19.80;45.30;;;;;;7710781;23;20012;-69
2021/03/24 01:26:18;;;;;;;1.23;1.00;;;19.80;45.20;;;;;;7711034;23;20011;-69
2021/03/24 01:29:18;;;;;;;1.45;1.02;;;19.80;45.20;;;;;;7713795;23;20004;-70
2021/03/24 01:32:19;;;;;;;1.98;1.00;;;19.80;45.20;;;;;;7713691;23;20371;-69
2021/03/24 01:35:20;;;;;;;2.03;1.20;;;19.80;45.20;;;;;;7713683;23;20420;-70
2021/03/24 01:38:21;;;;;;;1.33;1.20;;;19.80;45.30;;;;;;7713366;23;20007;-69
2021/03/24 01:41:24;;;;;;;1.25;1.08;;;19.80;45.30;;;;;;7712891;23;20020;-69
2021/03/24 01:44:26;;;;;;;1.98;1.20;;;19.80;45.30;;;;;;7712843;23;20012;-69
2021/03/24 01:47:28;;;;;;;1.55;1.13;;;19.80;45.30;;;;;;7713147;23;20008;-69
2021/03/24 01:50:33;;;;;;;1.58;1.08;;;19.80;45.30;;;;;;7712956;23;20054;-69
2021/03/24 01:53:36;;;;;;;1.98;1.15;;;19.80;45.30;;;;;;7712896;23;20008;-69
2021/03/24 01:56:39;;;;;;;1.63;1.15;;;19.80;45.30;;;;;;7713346;23;20311;-69
2021/03/24 01:59:40;;;;;;;1.33;1.10;;;19.80;45.40;;;;;;7712511;23;20456;-69
2021/03/24 02:02:40;;;;;;;2.05;1.30;;;19.80;45.40;;;;;;7713208;23;20100;-69
2021/03/24 02:05:43;;;;;;;1.35;1.00;;;19.80;45.30;;;;;;7713301;23;20336;-69
2021/03/24 02:08:52;;;;;;;1.58;1.15;;;19.80;45.50;;;;;;7713012;23;19996;-69
2021/03/24 02:12:08;;;;;;;1.17;1.00;;;19.80;45.30;;;;;;7713471;23;20005;-69
2021/03/24 02:15:16;;;;;;;1.73;1.15;;;19.80;45.40;;;;;;7712990;23;20057;-69
2021/03/24 02:18:19;;;;;;;1.15;1.05;;;19.80;45.40;;;;;;7712887;23;20008;-69
2021/03/24 02:21:25;;;;;;;1.48;1.05;;;19.80;45.40;;;;;;7712738;23;20024;-69
2021/03/24 02:24:37;;;;;;;1.15;0.95;;;19.80;45.40;;;;;;7712551;23;20004;-69
2021/03/24 02:27:42;;;;;;;1.20;1.00;;;19.80;45.50;;;;;;7713368;23;20000;-69
2021/03/24 02:30:46;;;;;;;1.67;0.90;;;19.80;45.40;;;;;;7712492;23;20009;-69
2021/03/24 02:33:49;;;;;;;1.05;0.90;;;19.70;45.30;;;;;;7712562;23;20070;-69
2021/03/24 02:36:52;;;;;;;1.10;1.00;;;19.70;45.40;;;;;;7712320;23;20436;-69
2021/03/24 02:39:54;;;;;;;1.10;1.00;;;19.80;45.50;;;;;;7711955;23;20012;-69
2021/03/24 02:42:55;;;;;;;2.35;1.00;;;19.70;45.40;;;;;;7712548;23;20004;-69
2021/03/24 02:45:58;;;;;;;1.58;1.13;;;19.80;45.50;;;;;;7712573;23;20076;-69
2021/03/24 02:49:03;;;;;;;1.20;1.10;;;19.70;45.40;;;;;;7712088;23;20024;-69
2021/03/24 02:52:04;;;;;;;1.20;0.87;;;19.70;45.40;;;;;;7712204;23;20344;-69
2021/03/24 02:55:10;;;;;;;1.95;1.38;;;19.70;45.40;;;;;;7712544;23;20012;-69
2021/03/24 02:58:11;;;;;;;1.23;1.00;;;19.70;45.50;;;;;;7712178;23;20032;-69
2021/03/24 03:01:19;;;;;;;2.10;1.20;;;19.70;45.50;;;;;;7712542;23;20428;-69
2021/03/24 03:04:26;;;;;;;1.00;0.80;;;19.70;45.60;;;;;;7712436;23;20393;-69
2021/03/24 03:07:40;;;;;;;1.13;1.02;;;19.70;45.40;;;;;;7712159;23;20066;-69
2021/03/24 03:10:55;;;;;;;1.55;1.20;;;19.70;45.50;;;;;;7711819;23;20436;-69
2021/03/24 03:14:00;;;;;;;1.30;0.88;;;19.70;45.50;;;;;;7713122;23;20009;-69
2021/03/24 03:17:11;;;;;;;1.08;0.90;;;19.70;45.50;;;;;;7712358;23;20000;-69
2021/03/24 03:20:25;;;;;;;2.00;1.05;;;19.70;45.50;;;;;;7711998;23;20277;-69
2021/03/24 03:23:30;;;;;;;1.55;1.25;;;19.70;45.50;;;;;;7712161;23;20343;-69
2021/03/24 03:26:34;;;;;;;1.30;1.00;;;19.70;45.50;;;;;;7712055;23;20078;-69
2021/03/24 03:29:35;;;;;;;1.30;1.10;;;19.70;45.50;;;;;;7712530;23;20005;-69
2021/03/24 03:32:38;;;;;;;1.27;0.98;;;19.70;45.50;;;;;;7712524;23;20443;-69
2021/03/24 03:35:40;;;;;;;1.30;1.20;;;19.70;45.50;;;;;;7712012;23;20005;-69
2021/03/24 03:38:43;;;;;;;1.30;1.13;;;19.70;45.50;;;;;;7711828;23;20504;-69
2021/03/24 03:41:45;;;;;;;1.50;1.02;;;19.70;45.50;;;;;;7711857;23;20009;-69
2021/03/24 03:44:46;;;;;;;1.48;1.08;;;19.70;45.50;;;;;;7712261;23;20015;-69
2021/03/24 03:47:47;;;;;;;1.83;1.00;;;19.70;45.60;;;;;;7711268;23;20051;-69
2021/03/24 03:51:01;;;;;;;1.67;1.20;;;19.70;45.50;;;;;;7711944;23;20297;-69
2021/03/24 03:54:27;;;;;;;0.82;0.80;;;19.70;45.60;;;;;;7711776;23;20008;-69
2021/03/24 03:57:39;;;;;;;1.48;1.00;;;19.70;45.50;;;;;;7711184;23;20009;-69
2021/03/24 04:00:50;;;;;;;1.77;1.20;;;19.70;45.50;;;;;;7711569;23;20070;-69
2021/03/24 04:04:07;;;;;;;1.73;1.00;;;19.70;45.60;;;;;;7711395;23;20008;-69
2021/03/24 04:07:27;;;;;;;1.58;1.20;;;19.70;45.50;;;;;;7711579;23;20004;-69
2021/03/24 04:10:32;;;;;;;0.93;0.90;;;19.70;45.50;;;;;;7711226;23;20013;-69
2021/03/24 04:13:35;;;;;;;1.73;1.08;;;19.70;45.50;;;;;;7711398;23;20511;-69
2021/03/24 04:16:38;;;;;;;1.65;1.20;;;19.70;45.60;;;;;;7711398;23;20001;-69
2021/03/24 04:19:49;;;;;;;1.77;1.15;;;19.70;45.60;;;;;;7711266;23;20012;-69
2021/03/24 04:22:52;;;;;;;1.13;1.02;;;19.70;45.60;;;;;;7710562;23;20024;-69
2021/03/24 04:26:09;;;;;;;1.10;0.90;;;19.70;45.50;;;;;;7711460;23;20012;-69
2021/03/24 04:29:13;;;;;;;1.02;0.90;;;19.70;45.50;;;;;;7709514;23;20012;-69
2021/03/24 04:32:15;;;;;;;1.60;1.10;;;19.70;45.60;;;;;;7711291;23;20067;-69
2021/03/24 04:35:20;;;;;;;1.27;1.08;;;19.70;45.60;;;;;;7711104;23;20008;-69
2021/03/24 04:38:33;;;;;;;1.00;0.68;;;19.70;45.50;;;;;;7711176;23;20009;-69
2021/03/24 04:41:39;;;;;;;1.35;1.20;;;19.70;45.50;;;;;;7710767;23;20332;-69
2021/03/24 04:44:41;;;;;;;1.42;1.00;;;19.70;45.60;;;;;;7711176;23;20076;-69
2021/03/24 04:47:48;;;;;;;1.27;1.00;;;19.70;45.60;;;;;;7710709;23;20043;-69
2021/03/24 04:51:05;;;;;;;1.50;1.13;;;19.70;45.50;;;;;;7711169;23;20075;-69
2021/03/24 04:54:26;;;;;;;1.00;0.90;;;19.70;45.60;;;;;;7710956;23;20024;-69
2021/03/24 04:57:28;;;;;;;1.13;0.85;;;19.70;45.60;;;;;;7711011;23;20008;-69
2021/03/24 05:00:47;;;;;;;1.27;1.00;;;19.70;45.50;;;;;;7710460;23;20100;-69
2021/03/24 05:03:54;;;;;;;1.48;0.90;;;19.70;45.60;;;;;;7710562;23;20011;-69
2021/03/24 05:07:03;;;;;;;0.93;0.77;;;19.70;45.70;;;;;;7710860;23;20004;-69
2021/03/24 05:10:07;;;;;;;1.20;0.93;;;19.70;45.60;;;;;;7711097;23;20000;-69
2021/03/24 05:13:28;;;;;;;1.17;1.00;;;19.70;45.70;;;;;;7710872;23;20005;-69
2021/03/24 05:16:33;;;;;;;1.13;0.88;;;19.70;45.70;;;;;;7710573;23;20012;-69
2021/03/24 05:19:34;;;;;;;;;;;19.70;45.70;;;;;;7711225;23;20055;-69
2021/03/24 05:22:43;;;;;;;1.58;1.20;;;19.70;45.60;;;;;;7710871;23;19979;-69
2021/03/24 05:25:46;;;;;;;1.13;1.02;;;19.70;45.60;;;;;;7710894;23;20027;-70
2021/03/24 05:28:53;;;;;;;2.15;1.00;;;19.70;45.50;;;;;;7710937;23;20340;-69
2021/03/24 05:31:55;;;;;;;1.38;0.90;;;19.70;45.60;;;;;;7711559;23;20001;-69
2021/03/24 05:34:59;;;;;;;2.00;1.20;;;19.70;45.60;;;;;;7710339;23;20393;-69
2021/03/24 05:38:07;;;;;;;1.60;1.20;;;19.70;45.60;;;;;;7710929;23;20004;-69
2021/03/24 05:41:29;;;;;;;1.17;1.08;;;19.70;45.60;;;;;;7710876;23;20008;-69
2021/03/24 05:44:33;;;;;;;1.20;0.90;;;19.70;45.70;;;;;;7711189;23;20301;-69
2021/03/24 05:48:11;;;;;;;1.13;0.80;;;19.70;45.60;;;;;;7711012;23;20013;-69
2021/03/24 05:51:52;;;;;;;0.90;0.85;;;19.70;45.70;;;;;;7711260;23;20055;-69
2021/03/24 05:55:19;;;;;;;1.00;0.90;;;19.70;45.70;;;;;;7636615;23;20443;-69
2021/03/24 05:58:47;;;;;;;1.65;1.10;;;19.70;45.60;;;;;;7710282;23;20410;-69
2021/03/24 06:01:55;;;;;;;0.98;0.77;;;19.70;45.70;;;;;;7710811;23;20004;-69
2021/03/24 06:05:07;;;;;;;2.10;1.13;;;19.70;45.70;;;;;;7710529;23;20015;-69
2021/03/24 06:08:14;;;;;;;1.60;0.95;;;19.70;45.60;;;;;;7710767;23;20055;-69
2021/03/24 06:11:37;;;;;;;1.20;1.00;;;19.70;45.60;;;;;;7710498;23;20000;-69
2021/03/24 06:14:41;;;;;;;1.20;1.10;;;19.70;45.60;;;;;;7710966;23;20096;-69
2021/03/24 06:17:52;;;;;;;0.98;0.73;;;19.70;45.80;;;;;;7701568;23;20011;-69
2021/03/24 06:21:12;;;;;;;3.20;2.25;;;19.70;45.70;;;;;;7705470;23;20446;-69
2021/03/24 06:24:37;;;;;;;5.38;2.42;;;19.70;45.00;;;;;;7709739;23;20007;-69
2021/03/24 06:28:00;;;;;;;2.80;2.00;;;19.70;44.90;;;;;;7711040;23;20009;-69
2021/03/24 06:31:35;;;;;;;5.97;1.58;;;19.70;45.20;;;;;;7709699;23;20054;-70
2021/03/24 06:35:23;;;;;;;2.47;1.70;;;19.80;45.80;;;;;;7709793;23;20004;-70
2021/03/24 06:38:42;;;;;;;3.13;1.90;;;19.80;45.60;;;;;;7710134;23;20009;-70
2021/03/24 06:42:19;;;;;;;5.68;1.52;;;19.80;45.80;;;;;;7710861;23;20008;-70
2021/03/24 06:45:38;;;;;;;2.08;1.20;;;19.80;45.60;;;;;;7710777;23;20422;-69
2021/03/24 06:48:57;;;;;;;4.72;1.58;;;19.90;45.60;;;;;;7708382;23;20625;-70
2021/03/24 06:52:16;;;;;;;9.60;1.60;;;19.90;45.70;;;;;;7710824;23;20031;-70
2021/03/24 06:55:45;;;;;;;2.55;1.40;;;19.90;46.60;;;;;;7711173;23;20011;-69
2021/03/24 06:59:12;;;;;;;4.60;1.40;;;19.90;46.70;;;;;;7700299;23;20011;-69
2021/03/24 07:02:34;;;;;;;2.58;1.40;;;20.00;46.30;;;;;;7712310;23;20071;-70
2021/03/24 07:05:58;;;;;;;3.78;1.65;;;20.00;46.00;;;;;;7711587;23;20083;-69
2021/03/24 07:09:16;;;;;;;3.78;1.60;;;20.00;45.80;;;;;;7712672;23;20015;-70
2021/03/24 07:12:35;;;;;;;2.47;1.42;;;20.10;45.80;;;;;;7712149;23;20009;-69
2021/03/24 07:15:40;;;;;;;3.03;1.80;;;20.10;45.80;;;;;;7712899;23;20001;-70
2021/03/24 07:19:26;;;;;;;3.70;1.48;;;20.10;45.70;;;;;;7711552;23;20012;-70
2021/03/24 07:23:09;;;;;;;4.00;1.67;;;20.10;45.60;;;;;;7710956;23;20001;-70
2021/03/24 07:26:09;;;;;;;2.45;1.50;;;20.10;45.60;;;;;;7710858;23;20083;-70
2021/03/24 07:29:30;;;;;;;2.75;1.50;;;20.10;45.50;;;;;;7712144;23;20340;-69
2021/03/24 07:32:53;;;;;;;5.32;1.63;;;20.10;45.60;;;;;;7711688;23;20012;-70
2021/03/24 07:35:57;;;;;;;1.73;1.00;;;20.10;45.80;;;;;;7711883;23;20004;-69
2021/03/24 07:39:03;;;;;;;3.20;1.40;;;20.10;45.70;;;;;;7711072;23;20013;-69
2021/03/24 07:42:28;;;;;;;2.13;1.15;;;20.10;45.90;;;;;;7711467;23;20005;-69
2021/03/24 07:45:48;;;;;;;1.80;1.20;;;20.10;46.10;;;;;;7711661;23;20015;-69
2021/03/24 07:48:51;;;;;;;2.15;1.33;;;20.10;46.10;;;;;;7711249;23;20440;-69
2021/03/24 07:52:29;;;;;;;3.50;1.60;;;20.10;46.10;;;;;;7711792;23;20453;-69
2021/03/24 07:55:41;;;;;;;2.45;1.40;;;20.10;46.10;;;;;;7711652;23;20371;-69
2021/03/24 07:59:13;;;;;;;1.92;1.48;;;20.00;46.00;;;;;;7710081;23;20023;-69
2021/03/24 08:02:28;;;;;;;4.20;1.33;;;20.00;46.00;;;;;;7711662;23;20001;-69
2021/03/24 08:06:02;;;;;;;2.17;1.30;;;20.00;46.00;;;;;;7711196;23;20007;-69
2021/03/24 08:09:13;;;;;;;2.45;1.52;;;20.00;46.00;;;;;;7629337;23;20059;-69
2021/03/24 08:12:35;;;;;;;2.97;1.60;;;20.00;46.00;;;;;;7710523;23;20001;-69
2021/03/24 08:15:43;;;;;;;2.78;1.70;;;20.00;46.00;;;;;;7710905;23;20079;-69
2021/03/24 08:19:08;;;;;;;3.30;1.52;;;20.00;46.10;;;;;;7710542;23;20004;-69
2021/03/24 08:22:24;;;;;;;4.55;1.90;;;20.00;46.10;;;;;;7711427;23;20008;-69
2021/03/24 08:25:43;;;;;;;;;;;20.00;46.10;;;;;;7712191;23;20005;-69
2021/03/24 08:29:15;;;;;;;2.28;1.50;;;20.00;46.10;;;;;;7710264;23;19908;-69
2021/03/24 08:32:18;;;;;;;2.08;1.33;;;20.00;46.90;;;;;;7711257;23;20371;-69
2021/03/24 08:35:54;;;;;;;2.35;1.52;;;20.00;46.10;;;;;;7710850;23;20079;-69
2021/03/24 08:39:13;;;;;;;3.40;1.70;;;20.00;46.20;;;;;;7710558;23;20381;-69
2021/03/24 08:42:44;;;;;;;2.65;1.70;;;20.00;46.20;;;;;;7711160;23;20004;-69
2021/03/24 08:46:11;;;;;;;2.78;1.77;;;19.90;46.20;;;;;;7710923;23;20008;-69
2021/03/24 08:49:13;;;;;;;7.95;4.45;;;19.90;46.10;;;;;;7694604;23;20027;-69
2021/03/24 08:52:34;;;;;;;7.28;3.55;;;19.90;45.50;;;;;;7710628;23;20007;-69
2021/03/24 08:55:46;;;;;;;6.28;3.40;;;19.90;45.70;;;;;;7710693;23;20051;-69
2021/03/24 08:59:03;;;;;;;6.63;2.90;;;19.90;45.80;;;;;;7711160;23;20256;-69
2021/03/24 09:02:19;;;;;;;3.30;2.42;;;19.90;45.80;;;;;;7710515;23;20035;-69
2021/03/24 09:05:33;;;;;;;5.25;2.85;;;19.90;46.00;;;;;;7711049;23;20009;-69
2021/03/24 09:08:58;;;;;;;5.18;2.13;;;19.90;46.00;;;;;;7711026;23;20004;-69
2021/03/24 09:12:03;;;;;;;6.60;2.40;;;19.90;46.00;;;;;;7709387;23;20008;-69
2021/03/24 09:15:10;;;;;;;4.47;2.35;;;19.90;46.10;;;;;;7710435;23;20419;-69
2021/03/24 09:18:48;;;;;;;2.72;1.90;;;19.90;46.00;;;;;;7710108;23;20030;-69
2021/03/24 09:22:13;;;;;;;3.45;2.00;;;19.90;46.10;;;;;;7695992;23;20637;-69
2021/03/24 09:25:26;;;;;;;3.08;2.17;;;19.90;46.10;;;;;;7710682;23;20019;-69
2021/03/24 09:29:07;;;;;;;3.92;2.05;;;19.90;46.10;;;;;;7710358;23;20023;-69
2021/03/24 09:32:32;;;;;;;4.90;1.90;;;19.90;46.10;;;;;;7710923;23;20036;-69
2021/03/24 09:36:00;;;;;;;2.78;1.88;;;19.90;46.20;;;;;;7710702;23;20005;-69
2021/03/24 09:39:16;;;;;;;13.20;6.68;;;19.90;46.20;;;;;;7709948;23;20436;-69
2021/03/24 09:42:25;;;;;;;16.80;9.10;;;19.80;45.60;;;;;;7710762;23;20083;-69
2021/03/24 09:45:52;;;;;;;16.40;11.55;;;19.80;44.30;;;;;;7710514;23;20345;-69
2021/03/24 09:48:56;;;;;;;23.80;14.52;;;19.80;43.60;;;;;;7711346;23;20016;-69
2021/03/24 09:52:21;;;;;;;17.02;12.40;;;19.80;42.50;;;;;;7713057;23;20048;-69
2021/03/24 09:55:30;;;;;;;22.60;8.75;;;19.80;43.10;;;;;;7704146;23;20436;-69
2021/03/24 09:58:47;;;;;;;13.57;9.05;;;19.80;43.70;;;;;;7712930;23;20332;-69
2021/03/24 10:02:12;;;;;;;12.48;7.25;;;19.80;43.90;;;;;;7713220;23;20071;-69
2021/03/24 10:05:15;;;;;;;10.30;6.63;;;19.80;44.40;;;;;;7711343;23;20063;-69
2021/03/24 10:08:50;;;;;;;12.25;6.63;;;19.80;44.40;;;;;;7712243;23;20032;-69
2021/03/24 10:12:06;;;;;;;10.20;5.40;;;19.80;44.60;;;;;;7712949;23;20027;-69
2021/03/24 10:15:44;;;;;;;7.68;4.47;;;19.80;44.60;;;;;;7712420;23;20024;-69
2021/03/24 10:19:04;;;;;;;9.18;4.63;;;19.80;44.80;;;;;;7712098;23;20512;-69
2021/03/24 10:22:19;;;;;;;5.85;3.95;;;19.80;44.80;;;;;;7712407;23;20444;-69
2021/03/24 10:25:43;;;;;;;6.18;3.75;;;19.80;45.10;;;;;;7712162;23;20008;-69
2021/03/24 10:28:53;;;;;;;5.38;3.63;;;19.80;45.10;;;;;;7710183;23;20059;-69
2021/03/24 10:32:18;;;;;;;7.07;3.50;;;19.80;45.20;;;;;;7712509;23;20459;-69
2021/03/24 10:35:29;;;;;;;5.07;3.33;;;19.80;45.20;;;;;;7712928;23;20502;-69
2021/03/24 10:38:42;;;;;;;4.47;3.00;;;19.80;45.20;;;;;;7712317;23;20036;-68
2021/03/24 10:42:03;;;;;;;4.13;2.83;;;19.80;45.30;;;;;;7711737;23;20083;-69
2021/03/24 10:45:27;;;;;;;6.55;3.05;;;19.80;45.30;;;;;;7712461;23;20035;-69
2021/03/24 10:48:33;;;;;;;4.32;2.78;;;19.80;45.30;;;;;;7712010;23;20013;-69
2021/03/24 10:51:49;;;;;;;4.78;2.78;;;19.80;45.40;;;;;;7712564;23;20436;-70
2021/03/24 10:55:00;;;;;;;3.65;2.63;;;19.80;45.40;;;;;;7712152;23;20015;-69
2021/03/24 10:58:32;;;;;;;4.15;2.63;;;19.80;45.50;;;;;;7711408;23;20005;-69
2021/03/24 11:01:47;;;;;;;4.35;2.65;;;19.80;45.60;;;;;;7711715;23;20017;-69
2021/03/24 11:05:08;;;;;;;4.80;2.65;;;19.80;45.50;;;;;;7711889;23;20095;-69
2021/03/24 11:08:16;;;;;;;4.30;2.80;;;19.80;45.70;;;;;;7711369;23;20129;-69
2021/03/24 11:11:23;;;;;;;6.50;2.72;;;19.80;45.50;;;;;;7711696;23;20007;-69
2021/03/24 11:14:27;;;;;;;4.95;2.83;;;19.80;45.50;;;;;;7711808;23;20062;-69
2021/03/24 11:17:37;;;;;;;4.38;3.22;;;19.80;45.50;;;;;;7711524;23;20017;-69
2021/03/24 11:20:44;;;;;;;3.40;2.63;;;19.80;45.50;;;;;;7709981;23;20012;-69
2021/03/24 11:23:49;;;;;;;3.60;2.83;;;19.80;45.40;;;;;;7712302;23;20339;-69
2021/03/24 11:27:06;;;;;;;3.65;2.58;;;19.80;45.30;;;;;;7711930;23;20014;-69
2021/03/24 11:30:34;;;;;;;2.95;2.30;;;19.80;45.40;;;;;;7711406;23;20050;-69
2021/03/24 11:33:44;;;;;;;3.50;2.60;;;19.80;45.50;;;;;;7711309;23;20001;-69
2021/03/24 11:36:54;;;;;;;5.55;2.50;;;19.80;45.40;;;;;;7711245;23;20373;-69
2021/03/24 11:40:04;;;;;;;3.33;2.40;;;19.80;45.30;;;;;;7711836;23;20055;-69
2021/03/24 11:43:09;;;;;;;4.22;2.20;;;19.80;45.30;;;;;;7711916;23;20004;-69
2021/03/24 11:46:46;;;;;;;3.42;2.22;;;19.80;45.30;;;;;;7711458;23;20004;-69
2021/03/24 11:49:49;;;;;;;3.15;2.25;;;19.80;45.60;;;;;;7630258;23;20111;-69
2021/03/24 11:53:02;;;;;;;3.25;2.17;;;19.80;45.30;;;;;;7637044;23;20020;-69
2021/03/24 11:56:24;;;;;;;4.53;2.35;;;19.80;45.50;;;;;;7637604;23;20503;-69
2021/03/24 11:59:32;;;;;;;3.70;2.50;;;19.80;45.50;;;;;;7637350;23;20438;-69
2021/03/24 12:03:19;;;;;;;3.28;2.08;;;19.80;45.50;;;;;;7637107;23;20029;-69
2021/03/24 12:06:27;;;;;;;3.83;2.33;;;19.80;45.50;;;;;;7622354;23;20036;-69
2021/03/24 12:09:31;;;;;;;2.95;2.05;;;19.80;45.60;;;;;;7637685;23;20017;-69
2021/03/24 12:12:32;;;;;;;2.42;1.92;;;19.80;45.60;;;;;;7636972;23;20025;-69
2021/03/24 12:15:34;;;;;;;3.05;2.20;;;19.80;45.50;;;;;;7637129;23;20081;-69
2021/03/24 12:19:01;;;;;;;4.80;2.50;;;19.80;45.50;;;;;;7636798;23;20024;-69
2021/03/24 12:22:18;;;;;;;2.65;1.80;;;19.80;45.60;;;;;;7635702;23;20517;-69
2021/03/24 12:25:21;;;;;;;2.70;2.00;;;19.80;45.60;;;;;;7637333;23;20076;-69
2021/03/24 12:28:29;;;;;;;2.75;1.85;;;19.80;45.60;;;;;;7635045;23;20024;-69
2021/03/24 12:31:30;;;;;;;2.88;1.85;;;19.80;46.30;;;;;;7637290;23;20009;-69
2021/03/24 12:34:41;;;;;;;2.75;2.00;;;19.80;45.60;;;;;;7636943;23;20006;-68
2021/03/24 12:37:48;;;;;;;2.78;1.90;;;19.80;45.60;;;;;;7638801;23;20088;-69
2021/03/24 12:40:58;;;;;;;2.47;1.80;;;19.80;45.70;;;;;;7639072;23;20014;-69
2021/03/24 12:44:48;;;;;;;2.38;1.83;;;19.80;46.40;;;;;;7638723;23;20380;-69
2021/03/24 12:47:50;;;;;;;3.42;2.38;;;19.80;45.70;;;;;;7640764;23;20016;-69
2021/03/24 12:51:05;;;;;;;3.25;2.10;;;19.80;46.40;;;;;;7711691;23;20329;-69
2021/03/24 12:54:12;;;;;;;2.70;1.85;;;19.80;45.70;;;;;;7710387;23;20420;-69
2021/03/24 12:57:25;;;;;;;2.40;1.98;;;19.80;45.80;;;;;;7710264;23;20082;-69
2021/03/24 13:00:56;;;;;;;1.85;1.50;;;19.80;45.70;;;;;;7711284;23;20020;-69
2021/03/24 13:04:15;;;;;;;2.42;1.40;;;19.80;45.80;;;;;;7710679;23;20026;-69
2021/03/24 13:07:29;;;;;;;1.63;1.40;;;19.80;45.80;;;;;;7710759;23;20325;-69
2021/03/24 13:10:45;;;;;;;2.28;1.77;;;19.80;45.80;;;;;;7711003;23;20001;-69
2021/03/24 13:14:23;;;;;;;1.70;1.27;;;19.80;45.80;;;;;;7713235;23;20075;-69
2021/03/24 13:17:43;;;;;;;3.03;1.67;;;19.80;45.90;;;;;;7711757;23;20001;-69
2021/03/24 13:21:15;;;;;;;4.18;1.73;;;19.80;45.80;;;;;;7710978;23;20015;-69
2021/03/24 13:24:31;;;;;;;1.83;1.60;;;19.80;45.90;;;;;;7708831;23;20004;-69
2021/03/24 13:27:52;;;;;;;2.13;1.67;;;19.80;45.90;;;;;;7713104;23;20067;-69
2021/03/24 13:31:24;;;;;;;2.53;1.85;;;19.80;46.00;;;;;;7711200;23;20001;-70
2021/03/24 13:34:40;;;;;;;1.48;1.38;;;19.80;46.10;;;;;;7713689;23;20024;-70
2021/03/24 13:37:42;;;;;;;7.40;4.93;;;19.80;45.90;;;;;;7712232;23;20043;-69
2021/03/24 13:40:42;;;;;;;8.30;1.75;;;19.90;46.60;;;;;;7712507;23;20017;-69
2021/03/24 13:43:58;;;;;;;4.45;2.00;;;20.10;46.00;;;;;;7711915;23;20333;-69
2021/03/24 13:47:04;;;;;;;4.35;2.10;;;20.20;45.60;;;;;;7712654;23;20372;-69
2021/03/24 13:50:16;;;;;;;10.90;1.90;;;20.20;45.90;;;;;;7712052;23;20016;-68
2021/03/24 13:53:28;;;;;;;3.47;2.10;;;20.20;46.10;;;;;;7713083;23;20019;-68
2021/03/24 13:57:01;;;;;;;5.53;2.08;;;20.20;46.10;;;;;;7712651;23;20032;-69
2021/03/24 14:00:36;;;;;;;8.93;2.13;;;20.10;46.20;;;;;;7711079;23;20067;-68
2021/03/24 14:04:02;;;;;;;14.65;2.67;;;20.20;46.10;;;;;;7712464;23;20009;-69
2021/03/24 14:07:26;;;;;;;12.50;2.50;;;20.20;46.30;;;;;;7712671;23;20099;-69
2021/03/24 14:10:45;;;;;;;7.55;2.60;;;20.30;46.40;;;;;;7711901;23;20000;-69
2021/03/24 14:13:54;;;;;;;4.45;2.28;;;20.30;46.30;;;;;;7712703;23;20063;-68
2021/03/24 14:17:05;;;;;;;3.78;2.15;;;20.20;46.30;;;;;;7711580;23;20028;-68
2021/03/24 14:20:24;;;;;;;4.05;2.00;;;20.20;46.20;;;;;;7710450;23;20521;-68
2021/03/24 14:23:52;;;;;;;7.20;2.08;;;20.20;46.20;;;;;;7711261;23;20009;-69
2021/03/24 14:27:02;;;;;;;7.53;2.33;;;20.10;46.30;;;;;;7711978;23;20004;-69
2021/03/24 14:30:28;;;;;;;5.63;2.38;;;20.20;46.30;;;;;;7711579;23;20004;-69
2021/03/24 14:33:41;;;;;;;7.75;2.08;;;20.20;46.30;;;;;;7711138;23;20048;-69
2021/03/24 14:36:49;;;;;;;5.15;1.92;;;20.20;46.20;;;;;;7710690;23;20046;-68
2021/03/24 14:40:06;;;;;;;4.88;1.80;;;20.20;46.20;;;;;;7711306;23;20086;-68
2021/03/24 14:43:22;;;;;;;6.82;2.00;;;20.10;46.10;;;;;;7713268;23;20005;-68
2021/03/24 14:46:42;;;;;;;5.28;1.90;;;20.10;46.10;;;;;;7711951;23;20437;-68
2021/03/24 14:50:23;;;;;;;5.00;2.17;;;20.10;46.10;;;;;;7710897;23;20070;-68
2021/03/24 14:53:29;;;;;;;3.40;2.30;;;20.10;46.10;;;;;;7686669;23;20063;-68
2021/03/24 14:56:39;;;;;;;5.60;2.25;;;20.10;46.10;;;;;;7713245;23;20375;-68
2021/03/24 14:59:43;;;;;;;6.18;2.08;;;20.10;46.80;;;;;;7710809;23;20008;-68
2021/03/24 15:02:44;;;;;;;3.28;2.00;;;20.10;46.10;;;;;;7710726;23;20020;-68
2021/03/24 15:05:44;;;;;;;3.45;2.05;;;20.10;46.10;;;;;;7710142;23;20012;-68
2021/03/24 15:08:50;;;;;;;5.22;1.80;;;20.10;46.10;;;;;;7710334;23;20000;-68
2021/03/24 15:11:57;;;;;;;9.57;2.10;;;20.10;46.20;;;;;;7709659;23;20015;-68
2021/03/24 15:15:06;;;;;;;8.73;2.30;;;20.10;46.20;;;;;;7710447;23;20456;-69
2021/03/24 15:18:14;;;;;;;4.78;1.83;;;20.10;46.20;;;;;;7709885;23;20005;-69
2021/03/24 15:21:27;;;;;;;3.78;1.80;;;20.10;46.20;;;;;;7709533;23;20077;-68
2021/03/24 15:24:46;;;;;;;2.63;1.77;;;20.10;46.20;;;;;;7710694;23;20339;-68
2021/03/24 15:28:09;;;;;;;3.92;1.60;;;20.10;46.20;;;;;;7710211;23;20099;-69
2021/03/24 15:31:56;;;;;;;5.07;1.67;;;20.10;46.20;;;;;;7709579;23;20360;-69
2021/03/24 15:35:19;;;;;;;3.40;1.77;;;20.10;46.30;;;;;;7597951;23;20013;-68
2021/03/24 15:38:25;;;;;;;2.50;1.60;;;20.10;46.30;;;;;;7709572;23;20005;-68
2021/03/24 15:41:42;;;;;;;12.18;1.80;;;20.10;46.20;;;;;;7709515;23;20016;-68
2021/03/24 15:44:55;;;;;;;4.93;1.77;;;20.10;46.20;;;;;;7710974;23;20005;-69
2021/03/24 15:47:56;;;;;;;3.63;2.20;;;20.10;46.30;;;;;;7709159;23;20024;-68
2021/03/24 15:51:18;;;;;;;3.08;1.70;;;20.10;46.30;;;;;;7709816;23;20505;-68
2021/03/24 15:54:30;;;;;;;3.83;1.80;;;20.10;46.30;;;;;;7709292;23;20008;-68
2021/03/24 15:57:40;;;;;;;3.83;1.85;;;20.10;46.30;;;;;;7710014;23;20340;-69
2021/03/24 16:00:40;;;;;;;8.20;2.08;;;20.10;46.40;;;;;;7709425;23;20008;-68
2021/03/24 16:03:43;;;;;;;2.13;1.55;;;20.10;46.40;;;;;;7710416;23;20399;-69
2021/03/24 16:06:56;;;;;;;6.97;2.00;;;20.10;46.50;;;;;;7708326;23;20004;-68
2021/03/24 16:10:39;;;;;;;8.35;4.35;;;20.10;46.40;;;;;;7709079;23;20419;-68
2021/03/24 16:14:05;;;;;;;15.50;8.93;;;20.00;45.90;;;;;;7710208;23;20011;-69
2021/03/24 16:17:31;;;;;;;12.55;7.85;;;20.00;44.90;;;;;;7709691;23;20360;-69
2021/03/24 16:20:43;;;;;;;;;;;20.00;45.60;;;;;;7708332;23;20013;-69
2021/03/24 16:23:54;;;;;;;11.13;5.72;;;20.10;45.10;;;;;;7709666;23;19904;-69
2021/03/24 16:27:04;;;;;;;8.88;4.97;;;20.10;45.30;;;;;;7709935;23;20008;-69
2021/03/24 16:30:18;;;;;;;7.82;5.00;;;20.10;45.50;;;;;;7709439;23;20337;-68
2021/03/24 16:33:40;;;;;;;11.15;4.75;;;20.10;45.60;;;;;;7708365;23;20449;-68
2021/03/24 16:37:05;;;;;;;6.15;3.40;;;20.10;45.70;;;;;;7708759;23;20001;-68
2021/03/24 16:40:41;;;;;;;7.28;3.33;;;20.10;45.80;;;;;;7708376;23;20071;-68
2021/03/24 16:43:45;;;;;;;6.65;3.92;;;20.10;45.90;;;;;;7706917;23;20377;-68
2021/03/24 16:47:19;;;;;;;7.25;2.95;;;20.10;45.90;;;;;;7709140;23;20000;-68